sensor_id;sensor_type;location;lat;lon;timestamp;P1;durP1;ratioP1;P2;durP2;ratioP2
24325;SDS011;12448;45.532;5.290;2022-08-21T00:01:29;3.17;;;0.90;;
24325;SDS011;12448;45.532;5.290;2022-08-21T00:04:19;2.95;;;1.00;;
24325;SDS011;12448;45.532;5.290;2022-08-21T00:06:49;1.55;;;0.90;;
24325;SDS011;12448;45.532;5.290;2022-08-21T00:09:16;2.28;;;1.00;;
24325;SDS011;12448;45.532;5.290;2022-08-21T00:12:35;3.10;;;0.80;;
24325;SDS011;12448;45.532;5.290;2022-08-21T00:15:40;1.90;;;0.85;;
24325;SDS011;12448;45.532;5.290;2022-08-21T00:18:50;2.83;;;1.00;;
24325;SDS011;12448;45.532;5.290;2022-08-21T00:22:02;2.28;;;1.13;;
24325;SDS011;12448;45.532;5.290;2022-08-21T00:34:23;3.03;;;1.30;;
24325;SDS011;12448;45.532;5.290;2022-08-21T00:37:08;4.57;;;1.20;;
24325;SDS011;12448;45.532;5.290;2022-08-21T00:40:33;2.72;;;1.27;;
24325;SDS011;12448;45.532;5.290;2022-08-21T00:43:11;2.13;;;1.10;;
24325;SDS011;12448;45.532;5.290;2022-08-21T00:49:12;4.13;;;0.93;;
24325;SDS011;12448;45.532;5.290;2022-08-21T00:51:43;2.40;;;0.82;;
24325;SDS011;12448;45.532;5.290;2022-08-21T00:54:19;2.47;;;1.10;;
24325;SDS011;12448;45.532;5.290;2022-08-21T00:57:07;2.97;;;1.00;;
24325;SDS011;12448;45.532;5.290;2022-08-21T00:59:53;3.08;;;1.08;;
24325;SDS011;12448;45.532;5.290;2022-08-21T01:05:41;5.45;;;1.30;;
24325;SDS011;12448;45.532;5.290;2022-08-21T01:08:11;2.85;;;1.23;;
24325;SDS011;12448;45.532;5.290;2022-08-21T01:10:38;4.78;;;1.15;;
24325;SDS011;12448;45.532;5.290;2022-08-21T01:13:15;3.25;;;1.05;;
24325;SDS011;12448;45.532;5.290;2022-08-21T01:15:43;4.10;;;1.40;;
24325;SDS011;12448;45.532;5.290;2022-08-21T01:18:12;2.78;;;1.10;;
24325;SDS011;12448;45.532;5.290;2022-08-21T01:20:38;4.90;;;1.52;;
24325;SDS011;12448;45.532;5.290;2022-08-21T01:23:56;2.28;;;0.95;;
24325;SDS011;12448;45.532;5.290;2022-08-21T01:27:04;5.72;;;1.30;;
24325;SDS011;12448;45.532;5.290;2022-08-21T01:34:13;1.83;;;1.02;;
24325;SDS011;12448;45.532;5.290;2022-08-21T01:40:08;5.63;;;1.40;;
24325;SDS011;12448;45.532;5.290;2022-08-21T01:43:12;2.72;;;0.93;;
24325;SDS011;12448;45.532;5.290;2022-08-21T01:45:41;5.80;;;1.00;;
24325;SDS011;12448;45.532;5.290;2022-08-21T01:48:36;2.33;;;1.00;;
24325;SDS011;12448;45.532;5.290;2022-08-21T01:51:28;1.45;;;1.02;;
24325;SDS011;12448;45.532;5.290;2022-08-21T01:53:56;3.90;;;1.00;;
24325;SDS011;12448;45.532;5.290;2022-08-21T01:59:50;5.30;;;1.10;;
24325;SDS011;12448;45.532;5.290;2022-08-21T02:02:16;4.18;;;1.20;;
24325;SDS011;12448;45.532;5.290;2022-08-21T02:04:44;3.53;;;1.13;;
24325;SDS011;12448;45.532;5.290;2022-08-21T02:10:55;3.47;;;1.02;;
24325;SDS011;12448;45.532;5.290;2022-08-21T02:13:21;3.45;;;1.10;;
24325;SDS011;12448;45.532;5.290;2022-08-21T02:19:55;2.88;;;1.20;;
24325;SDS011;12448;45.532;5.290;2022-08-21T02:22:19;2.83;;;1.10;;
24325;SDS011;12448;45.532;5.290;2022-08-21T02:25:30;2.78;;;1.10;;
24325;SDS011;12448;45.532;5.290;2022-08-21T02:28:42;2.53;;;0.90;;
24325;SDS011;12448;45.532;5.290;2022-08-21T02:31:17;2.70;;;1.15;;
24325;SDS011;12448;45.532;5.290;2022-08-21T02:37:01;4.18;;;1.10;;
24325;SDS011;12448;45.532;5.290;2022-08-21T02:39:35;2.75;;;1.10;;
24325;SDS011;12448;45.532;5.290;2022-08-21T02:42:13;3.20;;;0.93;;
24325;SDS011;12448;45.532;5.290;2022-08-21T02:44:39;3.35;;;1.23;;
24325;SDS011;12448;45.532;5.290;2022-08-21T02:47:05;4.18;;;1.35;;
24325;SDS011;12448;45.532;5.290;2022-08-21T02:49:31;1.67;;;0.95;;
24325;SDS011;12448;45.532;5.290;2022-08-21T02:52:18;2.20;;;1.00;;
24325;SDS011;12448;45.532;5.290;2022-08-21T02:54:43;3.63;;;1.13;;
24325;SDS011;12448;45.532;5.290;2022-08-21T02:57:09;6.50;;;1.40;;
24325;SDS011;12448;45.532;5.290;2022-08-21T02:59:38;4.13;;;1.20;;
24325;SDS011;12448;45.532;5.290;2022-08-21T03:02:53;3.72;;;1.23;;
24325;SDS011;12448;45.532;5.290;2022-08-21T03:05:20;2.67;;;1.13;;
24325;SDS011;12448;45.532;5.290;2022-08-21T03:11:13;4.47;;;1.60;;
24325;SDS011;12448;45.532;5.290;2022-08-21T03:17:01;3.75;;;1.30;;
24325;SDS011;12448;45.532;5.290;2022-08-21T03:22:50;2.97;;;1.20;;
24325;SDS011;12448;45.532;5.290;2022-08-21T03:28:20;4.03;;;1.45;;
24325;SDS011;12448;45.532;5.290;2022-08-21T03:34:36;1.63;;;1.20;;
24325;SDS011;12448;45.532;5.290;2022-08-21T03:37:26;5.05;;;1.40;;
24325;SDS011;12448;45.532;5.290;2022-08-21T03:39:53;4.63;;;1.40;;
24325;SDS011;12448;45.532;5.290;2022-08-21T03:42:19;4.90;;;1.15;;
24325;SDS011;12448;45.532;5.290;2022-08-21T03:45:19;3.90;;;1.30;;
24325;SDS011;12448;45.532;5.290;2022-08-21T03:48:06;2.85;;;1.00;;
24325;SDS011;12448;45.532;5.290;2022-08-21T03:50:36;4.50;;;1.45;;
24325;SDS011;12448;45.532;5.290;2022-08-21T03:53:09;3.05;;;1.40;;
24325;SDS011;12448;45.532;5.290;2022-08-21T03:55:45;3.85;;;1.30;;
24325;SDS011;12448;45.532;5.290;2022-08-21T03:58:13;7.88;;;1.52;;
24325;SDS011;12448;45.532;5.290;2022-08-21T04:00:40;4.03;;;1.15;;
24325;SDS011;12448;45.532;5.290;2022-08-21T04:06:51;3.28;;;1.40;;
24325;SDS011;12448;45.532;5.290;2022-08-21T04:10:11;5.22;;;1.63;;
24325;SDS011;12448;45.532;5.290;2022-08-21T04:15:54;4.68;;;1.35;;
24325;SDS011;12448;45.532;5.290;2022-08-21T04:18:32;5.57;;;1.73;;
24325;SDS011;12448;45.532;5.290;2022-08-21T04:21:04;4.55;;;1.98;;
24325;SDS011;12448;45.532;5.290;2022-08-21T04:24:02;5.38;;;1.95;;
24325;SDS011;12448;45.532;5.290;2022-08-21T04:26:44;3.65;;;1.17;;
24325;SDS011;12448;45.532;5.290;2022-08-21T04:36:02;4.57;;;1.30;;
24325;SDS011;12448;45.532;5.290;2022-08-21T04:38:28;3.53;;;1.50;;
24325;SDS011;12448;45.532;5.290;2022-08-21T04:40:56;3.10;;;1.48;;
24325;SDS011;12448;45.532;5.290;2022-08-21T04:43:22;6.10;;;1.45;;
24325;SDS011;12448;45.532;5.290;2022-08-21T04:45:48;6.97;;;1.60;;
24325;SDS011;12448;45.532;5.290;2022-08-21T04:48:15;3.65;;;1.35;;
24325;SDS011;12448;45.532;5.290;2022-08-21T04:50:52;4.00;;;1.40;;
24325;SDS011;12448;45.532;5.290;2022-08-21T04:54:02;6.13;;;1.67;;
24325;SDS011;12448;45.532;5.290;2022-08-21T04:56:40;4.38;;;1.40;;
24325;SDS011;12448;45.532;5.290;2022-08-21T04:59:12;7.00;;;1.30;;
24325;SDS011;12448;45.532;5.290;2022-08-21T05:02:00;5.03;;;1.50;;
24325;SDS011;12448;45.532;5.290;2022-08-21T05:04:27;6.05;;;1.50;;
24325;SDS011;12448;45.532;5.290;2022-08-21T05:13:45;5.88;;;1.52;;
24325;SDS011;12448;45.532;5.290;2022-08-21T05:16:19;6.57;;;1.55;;
24325;SDS011;12448;45.532;5.290;2022-08-21T05:18:53;6.82;;;1.75;;
24325;SDS011;12448;45.532;5.290;2022-08-21T05:21:45;2.78;;;1.60;;
24325;SDS011;12448;45.532;5.290;2022-08-21T05:24:34;5.70;;;1.40;;
24325;SDS011;12448;45.532;5.290;2022-08-21T05:27:03;4.93;;;1.80;;
24325;SDS011;12448;45.532;5.290;2022-08-21T05:29:32;8.15;;;1.92;;
24325;SDS011;12448;45.532;5.290;2022-08-21T05:31:58;9.48;;;1.85;;
24325;SDS011;12448;45.532;5.290;2022-08-21T05:34:42;5.15;;;1.60;;
24325;SDS011;12448;45.532;5.290;2022-08-21T05:37:19;3.17;;;1.35;;
24325;SDS011;12448;45.532;5.290;2022-08-21T05:40:16;4.72;;;1.60;;
24325;SDS011;12448;45.532;5.290;2022-08-21T05:42:45;4.90;;;1.60;;
24325;SDS011;12448;45.532;5.290;2022-08-21T05:45:39;4.63;;;1.70;;
24325;SDS011;12448;45.532;5.290;2022-08-21T05:48:26;4.45;;;1.63;;
24325;SDS011;12448;45.532;5.290;2022-08-21T05:51:27;4.53;;;1.60;;
24325;SDS011;12448;45.532;5.290;2022-08-21T05:55:20;7.10;;;1.92;;
24325;SDS011;12448;45.532;5.290;2022-08-21T05:57:44;4.80;;;1.42;;
24325;SDS011;12448;45.532;5.290;2022-08-21T06:00:22;5.40;;;1.58;;
24325;SDS011;12448;45.532;5.290;2022-08-21T06:02:48;3.88;;;1.70;;
24325;SDS011;12448;45.532;5.290;2022-08-21T06:05:15;8.00;;;1.63;;
24325;SDS011;12448;45.532;5.290;2022-08-21T06:08:01;5.05;;;1.40;;
24325;SDS011;12448;45.532;5.290;2022-08-21T06:10:46;5.07;;;1.60;;
24325;SDS011;12448;45.532;5.290;2022-08-21T06:13:16;5.20;;;1.65;;
24325;SDS011;12448;45.532;5.290;2022-08-21T06:18:58;4.55;;;1.63;;
24325;SDS011;12448;45.532;5.290;2022-08-21T06:21:29;5.60;;;1.83;;
24325;SDS011;12448;45.532;5.290;2022-08-21T06:23:55;7.90;;;1.92;;
24325;SDS011;12448;45.532;5.290;2022-08-21T06:26:40;5.75;;;1.88;;
24325;SDS011;12448;45.532;5.290;2022-08-21T06:29:05;5.65;;;1.60;;
24325;SDS011;12448;45.532;5.290;2022-08-21T06:31:32;8.88;;;2.00;;
24325;SDS011;12448;45.532;5.290;2022-08-21T06:34:10;5.78;;;1.90;;
24325;SDS011;12448;45.532;5.290;2022-08-21T06:36:45;5.82;;;1.80;;
24325;SDS011;12448;45.532;5.290;2022-08-21T06:39:23;5.80;;;1.65;;
24325;SDS011;12448;45.532;5.290;2022-08-21T06:41:49;8.43;;;1.80;;
24325;SDS011;12448;45.532;5.290;2022-08-21T06:44:15;4.03;;;1.70;;
24325;SDS011;12448;45.532;5.290;2022-08-21T06:46:47;6.30;;;1.80;;
24325;SDS011;12448;45.532;5.290;2022-08-21T06:49:13;10.40;;;2.28;;
24325;SDS011;12448;45.532;5.290;2022-08-21T06:52:45;4.78;;;1.55;;
24325;SDS011;12448;45.532;5.290;2022-08-21T06:54:51;9.45;;;2.20;;
24325;SDS011;12448;45.532;5.290;2022-08-21T06:57:28;6.00;;;1.83;;
24325;SDS011;12448;45.532;5.290;2022-08-21T07:00:07;8.77;;;2.28;;
24325;SDS011;12448;45.532;5.290;2022-08-21T07:02:34;4.30;;;1.65;;
24325;SDS011;12448;45.532;5.290;2022-08-21T07:05:45;5.55;;;1.52;;
24325;SDS011;12448;45.532;5.290;2022-08-21T07:07:55;5.80;;;2.00;;
24325;SDS011;12448;45.532;5.290;2022-08-21T07:10:22;6.55;;;1.60;;
24325;SDS011;12448;45.532;5.290;2022-08-21T07:12:51;6.25;;;1.83;;
24325;SDS011;12448;45.532;5.290;2022-08-21T07:15:34;6.65;;;1.77;;
24325;SDS011;12448;45.532;5.290;2022-08-21T07:18:00;3.80;;;2.10;;
24325;SDS011;12448;45.532;5.290;2022-08-21T07:20:26;7.75;;;1.67;;
24325;SDS011;12448;45.532;5.290;2022-08-21T07:22:53;4.47;;;1.80;;
24325;SDS011;12448;45.532;5.290;2022-08-21T07:25:19;8.15;;;1.60;;
24325;SDS011;12448;45.532;5.290;2022-08-21T07:31:13;4.32;;;1.60;;
24325;SDS011;12448;45.532;5.290;2022-08-21T07:34:16;5.93;;;1.80;;
24325;SDS011;12448;45.532;5.290;2022-08-21T07:36:42;6.60;;;1.80;;
24325;SDS011;12448;45.532;5.290;2022-08-21T07:39:33;6.70;;;1.90;;
24325;SDS011;12448;45.532;5.290;2022-08-21T07:41:59;3.67;;;1.75;;
24325;SDS011;12448;45.532;5.290;2022-08-21T07:44:28;5.30;;;1.67;;
24325;SDS011;12448;45.532;5.290;2022-08-21T07:46:57;5.15;;;1.60;;
24325;SDS011;12448;45.532;5.290;2022-08-21T07:49:22;5.22;;;1.73;;
24325;SDS011;12448;45.532;5.290;2022-08-21T07:51:51;6.70;;;1.65;;
24325;SDS011;12448;45.532;5.290;2022-08-21T07:54:17;6.35;;;1.70;;
24325;SDS011;12448;45.532;5.290;2022-08-21T07:56:43;1.77;;;1.08;;
24325;SDS011;12448;45.532;5.290;2022-08-21T07:59:08;4.32;;;1.73;;
24325;SDS011;12448;45.532;5.290;2022-08-21T08:01:40;8.82;;;1.92;;
24325;SDS011;12448;45.532;5.290;2022-08-21T08:04:06;3.63;;;1.35;;
24325;SDS011;12448;45.532;5.290;2022-08-21T08:06:31;2.63;;;1.50;;
24325;SDS011;12448;45.532;5.290;2022-08-21T08:09:00;5.13;;;1.42;;
24325;SDS011;12448;45.532;5.290;2022-08-21T08:11:45;3.88;;;1.63;;
24325;SDS011;12448;45.532;5.290;2022-08-21T08:14:11;3.53;;;1.48;;
24325;SDS011;12448;45.532;5.290;2022-08-21T08:16:52;2.90;;;1.25;;
24325;SDS011;12448;45.532;5.290;2022-08-21T08:19:18;3.67;;;1.40;;
24325;SDS011;12448;45.532;5.290;2022-08-21T08:21:49;2.38;;;1.50;;
24325;SDS011;12448;45.532;5.290;2022-08-21T08:24:39;8.77;;;1.88;;
24325;SDS011;12448;45.532;5.290;2022-08-21T08:27:05;2.95;;;1.90;;
24325;SDS011;12448;45.532;5.290;2022-08-21T08:29:30;5.60;;;1.48;;
24325;SDS011;12448;45.532;5.290;2022-08-21T08:31:56;3.30;;;1.40;;
24325;SDS011;12448;45.532;5.290;2022-08-21T08:34:22;6.75;;;1.30;;
24325;SDS011;12448;45.532;5.290;2022-08-21T08:36:48;2.95;;;1.40;;
24325;SDS011;12448;45.532;5.290;2022-08-21T08:39:14;2.10;;;1.30;;
24325;SDS011;12448;45.532;5.290;2022-08-21T08:41:39;3.58;;;1.30;;
24325;SDS011;12448;45.532;5.290;2022-08-21T08:44:08;4.57;;;1.52;;
24325;SDS011;12448;45.532;5.290;2022-08-21T08:46:41;2.17;;;1.20;;
24325;SDS011;12448;45.532;5.290;2022-08-21T08:51:53;5.00;;;1.55;;
24325;SDS011;12448;45.532;5.290;2022-08-21T08:54:42;4.10;;;1.70;;
24325;SDS011;12448;45.532;5.290;2022-08-21T08:57:14;4.13;;;1.30;;
24325;SDS011;12448;45.532;5.290;2022-08-21T09:02:13;4.93;;;1.60;;
24325;SDS011;12448;45.532;5.290;2022-08-21T09:04:40;2.10;;;1.48;;
24325;SDS011;12448;45.532;5.290;2022-08-21T09:10:10;2.15;;;1.20;;
24325;SDS011;12448;45.532;5.290;2022-08-21T09:12:48;6.32;;;1.35;;
24325;SDS011;12448;45.532;5.290;2022-08-21T09:15:16;5.82;;;1.23;;
24325;SDS011;12448;45.532;5.290;2022-08-21T09:17:56;4.13;;;1.30;;
24325;SDS011;12448;45.532;5.290;2022-08-21T09:45:29;6.85;;;1.40;;
24325;SDS011;12448;45.532;5.290;2022-08-21T09:48:38;7.15;;;1.85;;
24325;SDS011;12448;45.532;5.290;2022-08-21T09:51:16;3.95;;;1.40;;
24325;SDS011;12448;45.532;5.290;2022-08-21T09:53:49;5.63;;;1.73;;
24325;SDS011;12448;45.532;5.290;2022-08-21T09:59:43;6.00;;;1.63;;
24325;SDS011;12448;45.532;5.290;2022-08-21T10:04:52;20.58;;;10.43;;
24325;SDS011;12448;45.532;5.290;2022-08-21T10:07:24;5.60;;;2.75;;
24325;SDS011;12448;45.532;5.290;2022-08-21T10:10:09;3.78;;;2.10;;
24325;SDS011;12448;45.532;5.290;2022-08-21T10:12:47;3.08;;;1.45;;
24325;SDS011;12448;45.532;5.290;2022-08-21T10:18:30;6.45;;;1.58;;
24325;SDS011;12448;45.532;5.290;2022-08-21T10:26:17;4.88;;;1.80;;
24325;SDS011;12448;45.532;5.290;2022-08-21T10:31:42;4.72;;;1.05;;
24325;SDS011;12448;45.532;5.290;2022-08-21T10:34:31;3.83;;;1.10;;
24325;SDS011;12448;45.532;5.290;2022-08-21T10:39:40;3.17;;;1.30;;
24325;SDS011;12448;45.532;5.290;2022-08-21T10:45:52;3.65;;;1.33;;
24325;SDS011;12448;45.532;5.290;2022-08-21T10:56:25;4.82;;;1.85;;
24325;SDS011;12448;45.532;5.290;2022-08-21T11:06:46;5.47;;;1.58;;
24325;SDS011;12448;45.532;5.290;2022-08-21T11:09:30;3.15;;;1.38;;
24325;SDS011;12448;45.532;5.290;2022-08-21T11:11:58;5.30;;;1.27;;
24325;SDS011;12448;45.532;5.290;2022-08-21T11:17:09;4.63;;;1.30;;
24325;SDS011;12448;45.532;5.290;2022-08-21T11:19:54;4.65;;;1.10;;
24325;SDS011;12448;45.532;5.290;2022-08-21T11:22:49;2.97;;;1.50;;
24325;SDS011;12448;45.532;5.290;2022-08-21T11:25:26;5.10;;;1.20;;
24325;SDS011;12448;45.532;5.290;2022-08-21T11:28:16;4.38;;;1.20;;
24325;SDS011;12448;45.532;5.290;2022-08-21T11:50:39;3.97;;;1.40;;
24325;SDS011;12448;45.532;5.290;2022-08-21T11:53:19;3.00;;;1.27;;
24325;SDS011;12448;45.532;5.290;2022-08-21T11:58:28;6.45;;;1.38;;
24325;SDS011;12448;45.532;5.290;2022-08-21T12:01:00;4.85;;;1.45;;
24325;SDS011;12448;45.532;5.290;2022-08-21T12:04:06;4.18;;;1.13;;
24325;SDS011;12448;45.532;5.290;2022-08-21T12:06:34;3.72;;;1.50;;
24325;SDS011;12448;45.532;5.290;2022-08-21T12:09:06;4.20;;;1.23;;
24325;SDS011;12448;45.532;5.290;2022-08-21T12:11:45;5.18;;;1.25;;
24325;SDS011;12448;45.532;5.290;2022-08-21T12:14:16;5.47;;;1.50;;
24325;SDS011;12448;45.532;5.290;2022-08-21T12:16:44;3.17;;;1.50;;
24325;SDS011;12448;45.532;5.290;2022-08-21T12:19:12;5.82;;;1.50;;
24325;SDS011;12448;45.532;5.290;2022-08-21T12:29:48;3.88;;;1.25;;
24325;SDS011;12448;45.532;5.290;2022-08-21T12:34:48;3.60;;;1.10;;
24325;SDS011;12448;45.532;5.290;2022-08-21T12:40:18;4.40;;;1.67;;
24325;SDS011;12448;45.532;5.290;2022-08-21T12:42:50;4.32;;;1.13;;
24325;SDS011;12448;45.532;5.290;2022-08-21T12:45:20;5.45;;;1.38;;
24325;SDS011;12448;45.532;5.290;2022-08-21T12:50:48;3.38;;;1.40;;
24325;SDS011;12448;45.532;5.290;2022-08-21T12:56:09;2.13;;;1.10;;
24325;SDS011;12448;45.532;5.290;2022-08-21T12:58:46;6.13;;;1.52;;
24325;SDS011;12448;45.532;5.290;2022-08-21T13:03:51;6.35;;;1.40;;
24325;SDS011;12448;45.532;5.290;2022-08-21T13:06:20;5.50;;;1.20;;
24325;SDS011;12448;45.532;5.290;2022-08-21T13:08:48;2.70;;;1.30;;
24325;SDS011;12448;45.532;5.290;2022-08-21T13:11:22;2.72;;;1.13;;
24325;SDS011;12448;45.532;5.290;2022-08-21T13:13:50;4.22;;;1.33;;
24325;SDS011;12448;45.532;5.290;2022-08-21T13:16:20;6.43;;;1.40;;
24325;SDS011;12448;45.532;5.290;2022-08-21T13:18:54;2.70;;;1.10;;
24325;SDS011;12448;45.532;5.290;2022-08-21T13:21:27;2.47;;;1.20;;
24325;SDS011;12448;45.532;5.290;2022-08-21T13:24:15;4.82;;;1.15;;
24325;SDS011;12448;45.532;5.290;2022-08-21T13:26:43;4.65;;;1.45;;
24325;SDS011;12448;45.532;5.290;2022-08-21T13:29:10;3.30;;;1.40;;
24325;SDS011;12448;45.532;5.290;2022-08-21T13:31:37;6.35;;;1.50;;
24325;SDS011;12448;45.532;5.290;2022-08-21T13:34:05;3.67;;;1.20;;
24325;SDS011;12448;45.532;5.290;2022-08-21T13:36:35;8.15;;;1.42;;
24325;SDS011;12448;45.532;5.290;2022-08-21T13:39:04;2.95;;;1.00;;
24325;SDS011;12448;45.532;5.290;2022-08-21T13:41:34;4.40;;;1.30;;
24325;SDS011;12448;45.532;5.290;2022-08-21T13:44:23;3.38;;;1.48;;
24325;SDS011;12448;45.532;5.290;2022-08-21T13:47:07;2.95;;;1.23;;
24325;SDS011;12448;45.532;5.290;2022-08-21T13:49:37;3.25;;;1.20;;
24325;SDS011;12448;45.532;5.290;2022-08-21T13:52:05;1.63;;;1.10;;
24325;SDS011;12448;45.532;5.290;2022-08-21T13:54:50;2.85;;;1.42;;
24325;SDS011;12448;45.532;5.290;2022-08-21T13:57:24;5.30;;;1.27;;
24325;SDS011;12448;45.532;5.290;2022-08-21T13:59:50;3.35;;;1.50;;
24325;SDS011;12448;45.532;5.290;2022-08-21T14:02:20;3.10;;;1.17;;
24325;SDS011;12448;45.532;5.290;2022-08-21T14:04:55;2.42;;;1.20;;
24325;SDS011;12448;45.532;5.290;2022-08-21T14:07:35;4.57;;;1.30;;
24325;SDS011;12448;45.532;5.290;2022-08-21T14:10:05;3.78;;;1.40;;
24325;SDS011;12448;45.532;5.290;2022-08-21T14:12:38;8.25;;;1.33;;
24325;SDS011;12448;45.532;5.290;2022-08-21T14:15:07;5.82;;;1.25;;
24325;SDS011;12448;45.532;5.290;2022-08-21T14:17:36;3.67;;;1.33;;
24325;SDS011;12448;45.532;5.290;2022-08-21T14:20:07;6.10;;;1.30;;
24325;SDS011;12448;45.532;5.290;2022-08-21T14:22:42;7.18;;;1.60;;
24325;SDS011;12448;45.532;5.290;2022-08-21T14:25:27;5.75;;;1.50;;
24325;SDS011;12448;45.532;5.290;2022-08-21T14:27:56;4.05;;;1.30;;
24325;SDS011;12448;45.532;5.290;2022-08-21T14:30:35;7.32;;;1.70;;
24325;SDS011;12448;45.532;5.290;2022-08-21T14:33:03;3.17;;;1.00;;
24325;SDS011;12448;45.532;5.290;2022-08-21T14:35:34;6.50;;;1.60;;
24325;SDS011;12448;45.532;5.290;2022-08-21T14:38:00;6.13;;;1.58;;
24325;SDS011;12448;45.532;5.290;2022-08-21T14:40:25;4.28;;;1.10;;
24325;SDS011;12448;45.532;5.290;2022-08-21T14:42:52;6.60;;;1.30;;
24325;SDS011;12448;45.532;5.290;2022-08-21T14:45:23;3.88;;;1.30;;
24325;SDS011;12448;45.532;5.290;2022-08-21T14:47:52;4.32;;;1.65;;
24325;SDS011;12448;45.532;5.290;2022-08-21T14:50:18;4.88;;;1.40;;
24325;SDS011;12448;45.532;5.290;2022-08-21T14:52:44;3.53;;;1.40;;
24325;SDS011;12448;45.532;5.290;2022-08-21T14:55:11;2.38;;;1.23;;
24325;SDS011;12448;45.532;5.290;2022-08-21T14:57:45;4.97;;;1.35;;
24325;SDS011;12448;45.532;5.290;2022-08-21T15:00:13;3.72;;;1.02;;
24325;SDS011;12448;45.532;5.290;2022-08-21T15:02:44;5.95;;;1.55;;
24325;SDS011;12448;45.532;5.290;2022-08-21T15:05:11;3.60;;;1.55;;
24325;SDS011;12448;45.532;5.290;2022-08-21T15:07:38;5.65;;;1.52;;
24325;SDS011;12448;45.532;5.290;2022-08-21T15:10:04;4.38;;;1.20;;
24325;SDS011;12448;45.532;5.290;2022-08-21T15:12:31;5.30;;;1.40;;
24325;SDS011;12448;45.532;5.290;2022-08-21T15:14:57;5.65;;;1.33;;
24325;SDS011;12448;45.532;5.290;2022-08-21T15:17:23;2.55;;;1.20;;
24325;SDS011;12448;45.532;5.290;2022-08-21T15:19:48;2.97;;;1.48;;
24325;SDS011;12448;45.532;5.290;2022-08-21T15:22:14;4.60;;;1.90;;
24325;SDS011;12448;45.532;5.290;2022-08-21T15:24:40;5.10;;;2.13;;
24325;SDS011;12448;45.532;5.290;2022-08-21T15:27:06;7.63;;;1.92;;
24325;SDS011;12448;45.532;5.290;2022-08-21T15:29:33;5.45;;;2.05;;
24325;SDS011;12448;45.532;5.290;2022-08-21T15:32:00;4.35;;;1.55;;
24325;SDS011;12448;45.532;5.290;2022-08-21T15:34:40;4.65;;;1.50;;
24325;SDS011;12448;45.532;5.290;2022-08-21T15:37:05;5.63;;;2.05;;
24325;SDS011;12448;45.532;5.290;2022-08-21T15:39:33;4.10;;;2.03;;
24325;SDS011;12448;45.532;5.290;2022-08-21T15:41:59;4.03;;;1.73;;
24325;SDS011;12448;45.532;5.290;2022-08-21T15:44:25;6.30;;;2.28;;
24325;SDS011;12448;45.532;5.290;2022-08-21T15:46:52;5.03;;;2.00;;
24325;SDS011;12448;45.532;5.290;2022-08-21T15:49:18;9.20;;;2.53;;
24325;SDS011;12448;45.532;5.290;2022-08-21T15:51:44;4.25;;;2.00;;
24325;SDS011;12448;45.532;5.290;2022-08-21T15:54:09;5.30;;;1.95;;
24325;SDS011;12448;45.532;5.290;2022-08-21T15:56:36;6.97;;;2.33;;
24325;SDS011;12448;45.532;5.290;2022-08-21T15:59:05;4.75;;;2.20;;
24325;SDS011;12448;45.532;5.290;2022-08-21T16:01:34;6.38;;;2.35;;
24325;SDS011;12448;45.532;5.290;2022-08-21T16:04:00;4.70;;;2.33;;
24325;SDS011;12448;45.532;5.290;2022-08-21T16:06:28;9.15;;;2.50;;
24325;SDS011;12448;45.532;5.290;2022-08-21T16:08:54;6.47;;;2.63;;
24325;SDS011;12448;45.532;5.290;2022-08-21T16:11:19;7.85;;;2.70;;
24325;SDS011;12448;45.532;5.290;2022-08-21T16:13:45;4.85;;;2.42;;
24325;SDS011;12448;45.532;5.290;2022-08-21T16:16:12;5.90;;;2.33;;
24325;SDS011;12448;45.532;5.290;2022-08-21T16:18:43;5.78;;;2.80;;
24325;SDS011;12448;45.532;5.290;2022-08-21T16:21:10;3.70;;;2.38;;
24325;SDS011;12448;45.532;5.290;2022-08-21T16:23:36;4.93;;;2.40;;
24325;SDS011;12448;45.532;5.290;2022-08-21T16:26:03;5.38;;;2.95;;
24325;SDS011;12448;45.532;5.290;2022-08-21T16:28:30;6.32;;;2.58;;
24325;SDS011;12448;45.532;5.290;2022-08-21T16:30:57;4.45;;;2.53;;
24325;SDS011;12448;45.532;5.290;2022-08-21T16:33:29;6.10;;;2.40;;
24325;SDS011;12448;45.532;5.290;2022-08-21T16:35:59;7.28;;;2.22;;
24325;SDS011;12448;45.532;5.290;2022-08-21T16:38:26;4.63;;;2.50;;
24325;SDS011;12448;45.532;5.290;2022-08-21T16:40:53;3.67;;;2.38;;
24325;SDS011;12448;45.532;5.290;2022-08-21T16:43:21;7.07;;;2.97;;
24325;SDS011;12448;45.532;5.290;2022-08-21T16:45:51;8.50;;;2.95;;
24325;SDS011;12448;45.532;5.290;2022-08-21T16:48:17;6.68;;;3.10;;
24325;SDS011;12448;45.532;5.290;2022-08-21T16:50:43;5.85;;;2.90;;
24325;SDS011;12448;45.532;5.290;2022-08-21T16:53:09;5.20;;;2.88;;
24325;SDS011;12448;45.532;5.290;2022-08-21T16:55:35;6.53;;;3.08;;
24325;SDS011;12448;45.532;5.290;2022-08-21T16:58:01;6.45;;;2.78;;
24325;SDS011;12448;45.532;5.290;2022-08-21T17:00:31;11.13;;;2.58;;
24325;SDS011;12448;45.532;5.290;2022-08-21T17:02:56;6.93;;;3.42;;
24325;SDS011;12448;45.532;5.290;2022-08-21T17:05:22;6.95;;;3.17;;
24325;SDS011;12448;45.532;5.290;2022-08-21T17:07:48;4.32;;;2.88;;
24325;SDS011;12448;45.532;5.290;2022-08-21T17:10:15;8.82;;;3.50;;
24325;SDS011;12448;45.532;5.290;2022-08-21T17:12:42;5.72;;;3.33;;
24325;SDS011;12448;45.532;5.290;2022-08-21T17:15:15;10.23;;;3.50;;
24325;SDS011;12448;45.532;5.290;2022-08-21T17:17:45;5.75;;;3.65;;
24325;SDS011;12448;45.532;5.290;2022-08-21T17:20:11;4.50;;;2.75;;
24325;SDS011;12448;45.532;5.290;2022-08-21T17:22:36;6.30;;;2.97;;
24325;SDS011;12448;45.532;5.290;2022-08-21T17:25:02;6.53;;;3.25;;
24325;SDS011;12448;45.532;5.290;2022-08-21T17:27:28;4.90;;;2.90;;
24325;SDS011;12448;45.532;5.290;2022-08-21T17:29:54;7.50;;;3.33;;
24325;SDS011;12448;45.532;5.290;2022-08-21T17:32:22;4.85;;;2.80;;
24325;SDS011;12448;45.532;5.290;2022-08-21T17:34:48;9.27;;;3.95;;
24325;SDS011;12448;45.532;5.290;2022-08-21T17:37:13;7.57;;;3.22;;
24325;SDS011;12448;45.532;5.290;2022-08-21T17:39:39;7.25;;;3.10;;
24325;SDS011;12448;45.532;5.290;2022-08-21T17:42:07;7.72;;;2.92;;
24325;SDS011;12448;45.532;5.290;2022-08-21T17:44:36;5.40;;;2.83;;
24325;SDS011;12448;45.532;5.290;2022-08-21T17:47:03;7.53;;;2.80;;
24325;SDS011;12448;45.532;5.290;2022-08-21T17:49:30;5.35;;;3.28;;
24325;SDS011;12448;45.532;5.290;2022-08-21T17:51:56;5.60;;;3.15;;
24325;SDS011;12448;45.532;5.290;2022-08-21T17:54:25;7.30;;;3.30;;
24325;SDS011;12448;45.532;5.290;2022-08-21T17:56:52;7.68;;;3.45;;
24325;SDS011;12448;45.532;5.290;2022-08-21T17:59:19;5.28;;;3.08;;
24325;SDS011;12448;45.532;5.290;2022-08-21T18:01:46;6.05;;;3.20;;
24325;SDS011;12448;45.532;5.290;2022-08-21T18:04:12;9.85;;;3.15;;
24325;SDS011;12448;45.532;5.290;2022-08-21T18:06:39;8.57;;;3.20;;
24325;SDS011;12448;45.532;5.290;2022-08-21T18:09:06;6.97;;;2.95;;
24325;SDS011;12448;45.532;5.290;2022-08-21T18:11:32;6.38;;;3.03;;
24325;SDS011;12448;45.532;5.290;2022-08-21T18:14:00;6.20;;;2.92;;
24325;SDS011;12448;45.532;5.290;2022-08-21T18:16:28;6.32;;;3.03;;
24325;SDS011;12448;45.532;5.290;2022-08-21T18:18:54;6.80;;;3.10;;
24325;SDS011;12448;45.532;5.290;2022-08-21T18:21:21;8.82;;;3.22;;
24325;SDS011;12448;45.532;5.290;2022-08-21T18:23:46;6.35;;;3.10;;
24325;SDS011;12448;45.532;5.290;2022-08-21T18:26:14;5.60;;;3.05;;
24325;SDS011;12448;45.532;5.290;2022-08-21T18:28:47;6.18;;;2.88;;
24325;SDS011;12448;45.532;5.290;2022-08-21T18:31:13;8.60;;;3.00;;
24325;SDS011;12448;45.532;5.290;2022-08-21T18:33:38;7.22;;;3.28;;
24325;SDS011;12448;45.532;5.290;2022-08-21T18:36:05;5.78;;;2.63;;
24325;SDS011;12448;45.532;5.290;2022-08-21T18:38:31;7.93;;;2.92;;
24325;SDS011;12448;45.532;5.290;2022-08-21T18:40:59;6.55;;;3.10;;
24325;SDS011;12448;45.532;5.290;2022-08-21T18:43:25;7.05;;;3.38;;
24325;SDS011;12448;45.532;5.290;2022-08-21T18:45:51;7.38;;;2.90;;
24325;SDS011;12448;45.532;5.290;2022-08-21T18:48:17;8.65;;;3.22;;